createdAt,value
2022-12-07T00:01:55.279Z,85.65
2022-12-07T00:06:59.639Z,85.60
2022-12-07T00:12:02.861Z,85.64
2022-12-07T00:17:06.068Z,85.66
2022-12-07T00:22:09.269Z,85.68
2022-12-07T00:27:12.441Z,85.65
2022-12-07T00:32:15.965Z,85.66
2022-12-07T00:37:19.316Z,85.62
2022-12-07T00:42:22.898Z,85.67
2022-12-07T00:47:26.022Z,85.71
2022-12-07T00:52:29.229Z,85.72
2022-12-07T00:57:32.452Z,85.72
2022-12-07T01:02:35.649Z,85.65
2022-12-07T01:07:39.102Z,85.68
2022-12-07T01:12:43.004Z,85.71
2022-12-07T01:17:46.450Z,85.72
2022-12-07T01:22:49.978Z,85.38
2022-12-07T01:27:53.251Z,85.23
2022-12-07T01:32:56.446Z,85.24
2022-12-07T01:37:59.659Z,85.21
2022-12-07T01:43:03.254Z,85.25
2022-12-07T01:48:09.226Z,85.34
2022-12-07T01:53:14.906Z,85.39
2022-12-07T01:58:18.608Z,85.34
2022-12-07T02:03:38.986Z,85.10
2022-12-07T02:08:43.480Z,85.14
2022-12-07T02:13:48.264Z,85.33
2022-12-07T02:19:23.743Z,85.26
2022-12-07T02:24:32.906Z,85.22
2022-12-07T02:29:52.950Z,85.39
2022-12-07T02:35:12.898Z,85.25
2022-12-07T02:40:28.545Z,85.01
2022-12-07T02:45:33.926Z,84.88
2022-12-07T02:50:38.166Z,84.90
2022-12-07T02:55:43.463Z,85.00
2022-12-07T03:01:28.077Z,85.10
2022-12-07T03:06:37.100Z,85.36
2022-12-07T03:11:52.833Z,85.58
2022-12-07T03:17:09.326Z,85.79
2022-12-07T03:22:15.064Z,85.88
2022-12-07T03:27:24.127Z,85.96
2022-12-07T03:32:35.312Z,85.98
2022-12-07T03:37:50.952Z,86.03
2022-12-07T03:42:56.283Z,86.02
2022-12-07T03:48:08.885Z,86.35
2022-12-07T03:53:15.427Z,86.38
2022-12-07T03:58:22.920Z,86.34
2022-12-07T04:03:26.493Z,86.55
2022-12-07T04:08:29.763Z,86.63
2022-12-07T04:13:52.837Z,86.53
2022-12-07T04:18:56.004Z,86.54
2022-12-07T04:23:59.186Z,86.33
2022-12-07T04:29:07.285Z,86.44
2022-12-07T04:34:11.550Z,86.33
2022-12-07T04:39:30.213Z,86.41
2022-12-07T04:44:33.495Z,86.54
2022-12-07T04:49:36.654Z,86.61
2022-12-07T04:54:39.896Z,86.61
2022-12-07T04:59:45.755Z,86.66
2022-12-07T05:04:50.052Z,86.62
2022-12-07T05:09:53.361Z,86.70
2022-12-07T05:14:56.482Z,86.62
2022-12-07T05:19:59.974Z,86.55
2022-12-07T05:25:04.056Z,86.74
2022-12-07T05:30:08.034Z,86.85
2022-12-07T05:35:11.281Z,87.03
2022-12-07T05:40:15.553Z,87.38
2022-12-07T05:45:19.004Z,87.16
2022-12-07T05:50:22.219Z,87.36
2022-12-07T05:55:26.540Z,87.71
2022-12-07T06:00:29.785Z,87.88
2022-12-07T06:05:32.914Z,87.97
2022-12-07T06:10:36.666Z,87.93
2022-12-07T06:15:39.835Z,88.01
2022-12-07T06:20:43.191Z,88.18
2022-12-07T06:25:49.487Z,88.35
2022-12-07T06:31:03.206Z,88.49
2022-12-07T06:36:06.621Z,88.54
2022-12-07T06:41:09.821Z,88.44
2022-12-07T06:46:13.025Z,88.60
2022-12-07T06:51:16.599Z,88.59
2022-12-07T06:56:19.907Z,88.63
2022-12-07T07:01:23.736Z,88.74
2022-12-07T07:06:27.011Z,88.89
2022-12-07T07:11:30.197Z,89.03
2022-12-07T07:16:33.543Z,89.04
2022-12-07T07:21:37.856Z,89.01
2022-12-07T07:26:41.009Z,88.91
2022-12-07T07:31:44.208Z,88.87
2022-12-07T07:36:47.342Z,88.90
2022-12-07T07:41:50.545Z,88.73
2022-12-07T07:46:58.207Z,88.72
2022-12-07T07:52:03.828Z,88.68
2022-12-07T07:57:07.067Z,88.64
2022-12-07T08:02:16.246Z,88.56
2022-12-07T08:07:19.540Z,88.59
2022-12-07T08:12:22.776Z,88.64
2022-12-07T08:17:26.671Z,88.61
2022-12-07T08:22:29.862Z,88.65
2022-12-07T08:27:33.103Z,88.56
2022-12-07T08:32:36.871Z,88.50
2022-12-07T08:37:40.442Z,88.47
2022-12-07T08:42:45.885Z,88.39
2022-12-07T08:47:57.700Z,88.38
2022-12-07T08:53:02.142Z,88.34
2022-12-07T08:58:05.475Z,88.36
2022-12-07T09:03:08.796Z,88.33
2022-12-07T09:08:12.534Z,88.12
2022-12-07T09:13:15.810Z,87.92
2022-12-07T09:18:19.131Z,87.68
2022-12-07T09:23:22.313Z,87.45
2022-12-07T09:28:25.576Z,87.20
2022-12-07T09:33:28.675Z,86.89
2022-12-07T09:38:34.025Z,86.73
2022-12-07T09:43:41.091Z,86.81
2022-12-07T09:48:47.036Z,86.86
2022-12-07T09:53:52.522Z,86.85
2022-12-07T09:59:03.012Z,86.88
2022-12-07T10:04:35.948Z,86.65
2022-12-07T10:09:39.265Z,86.64
2022-12-07T10:15:07.184Z,86.29
2022-12-07T10:20:21.996Z,86.23
2022-12-07T10:25:29.779Z,86.44
2022-12-07T10:30:34.189Z,86.26
2022-12-07T10:35:44.703Z,86.03
2022-12-07T10:40:50.891Z,85.96
2022-12-07T10:46:23.409Z,85.85
2022-12-07T10:51:42.161Z,85.47
2022-12-07T10:57:44.013Z,85.83
2022-12-07T11:03:24.532Z,85.04
2022-12-07T11:08:40.198Z,84.37
2022-12-07T11:14:17.718Z,84.49
2022-12-07T11:19:30.036Z,83.68
2022-12-07T11:24:48.370Z,84.12
2022-12-07T11:30:03.929Z,83.14
2022-12-07T11:35:24.036Z,83.77
2022-12-07T11:40:37.717Z,83.50
2022-12-07T11:45:44.361Z,82.69
2022-12-07T11:50:56.056Z,82.91
2022-12-07T11:56:12.356Z,82.76
2022-12-07T12:01:18.412Z,82.89
2022-12-07T12:06:23.128Z,83.77
2022-12-07T12:11:26.443Z,83.48
2022-12-07T12:16:57.275Z,83.06
2022-12-07T12:22:22.367Z,83.83
2022-12-07T12:27:31.226Z,82.94
2022-12-07T12:32:41.728Z,83.47
2022-12-07T12:37:47.449Z,82.67
2022-12-07T12:42:56.831Z,82.09
2022-12-07T12:48:02.501Z,82.27
2022-12-07T12:53:30.603Z,82.40
2022-12-07T12:58:37.345Z,82.73
2022-12-07T13:03:54.400Z,83.26
2022-12-07T13:09:00.621Z,82.13
2022-12-07T13:14:38.568Z,82.21
2022-12-07T13:19:44.898Z,82.23
2022-12-07T13:24:48.191Z,82.24
2022-12-07T13:29:51.998Z,82.28
2022-12-07T13:34:55.700Z,82.75
2022-12-07T13:40:02.600Z,83.10
2022-12-07T13:45:50.379Z,83.18
2022-12-07T13:50:56.797Z,83.35
2022-12-07T13:56:01.308Z,83.40
2022-12-07T14:01:04.804Z,83.46
2022-12-07T14:06:30.271Z,83.43
2022-12-07T14:11:34.808Z,83.67
2022-12-07T14:16:40.359Z,83.94
2022-12-07T14:21:43.680Z,84.04
2022-12-07T14:26:51.288Z,84.30
2022-12-07T14:31:56.969Z,84.37
2022-12-07T14:37:00.340Z,84.56
2022-12-07T14:42:03.708Z,84.70
2022-12-07T14:58:00.007Z,84.96
2022-12-07T15:03:03.473Z,85.08
2022-12-07T15:08:06.825Z,84.93
2022-12-07T15:13:28.730Z,84.87
2022-12-07T15:18:31.974Z,85.18
2022-12-07T15:23:35.299Z,85.53
2022-12-07T15:28:38.559Z,85.88
2022-12-07T15:33:42.441Z,85.92
2022-12-07T15:39:12.535Z,86.34
2022-12-07T15:44:32.264Z,86.60
2022-12-07T15:49:35.500Z,86.55
2022-12-07T15:54:39.202Z,86.65
2022-12-07T15:59:42.561Z,86.58
2022-12-07T16:04:46.312Z,86.35
2022-12-07T16:09:50.873Z,86.48
2022-12-07T16:14:54.191Z,86.26
2022-12-07T16:19:58.504Z,86.34
2022-12-07T16:25:02.024Z,86.58
2022-12-07T16:30:06.293Z,86.74
2022-12-07T16:35:10.919Z,86.81
2022-12-07T16:40:14.227Z,86.58
2022-12-07T16:45:21.016Z,86.68
2022-12-07T16:50:25.734Z,86.50
2022-12-07T16:55:28.919Z,86.51
2022-12-07T17:00:32.317Z,86.69
2022-12-07T17:05:40.216Z,86.61
2022-12-07T17:10:45.881Z,86.53
2022-12-07T17:16:01.991Z,86.57
2022-12-07T17:21:08.194Z,86.64
2022-12-07T17:26:14.594Z,86.74
2022-12-07T17:31:22.974Z,86.64
2022-12-07T17:36:29.220Z,86.61
2022-12-07T17:41:51.293Z,86.60
2022-12-07T17:46:58.174Z,86.54
2022-12-07T17:52:19.948Z,86.61
2022-12-07T17:57:23.687Z,86.62
2022-12-07T18:02:27.020Z,86.66
2022-12-07T18:07:30.715Z,86.64
2022-12-07T18:12:33.988Z,86.47
2022-12-07T18:17:37.121Z,86.47
2022-12-07T18:22:40.583Z,86.33
2022-12-07T18:27:43.739Z,86.30
2022-12-07T18:32:46.987Z,86.30
2022-12-07T18:37:50.320Z,86.25
2022-12-07T18:42:54.641Z,86.22
2022-12-07T18:47:57.844Z,86.15
2022-12-07T18:53:03.908Z,86.05
2022-12-07T18:58:07.211Z,85.97
2022-12-07T19:03:11.510Z,85.95
2022-12-07T19:08:14.945Z,85.82
2022-12-07T19:13:18.528Z,85.86
2022-12-07T19:18:21.992Z,85.88
2022-12-07T19:23:26.778Z,85.65
2022-12-07T19:28:30.206Z,85.79
2022-12-07T19:33:33.732Z,85.78
2022-12-07T19:38:37.123Z,85.83
2022-12-07T19:43:42.656Z,85.72
2022-12-07T19:48:46.231Z,85.47
2022-12-07T19:53:49.654Z,85.62
2022-12-07T19:58:53.799Z,85.76
2022-12-07T20:03:57.681Z,85.92
2022-12-07T20:09:01.113Z,85.70
2022-12-07T20:14:10.570Z,85.68
2022-12-07T20:19:15.827Z,85.91
2022-12-07T20:24:23.845Z,85.52
2022-12-07T20:29:27.174Z,85.61
2022-12-07T20:34:30.522Z,85.73
2022-12-07T20:39:34.238Z,85.81
2022-12-07T20:44:37.888Z,85.79
2022-12-07T20:49:41.168Z,85.55
2022-12-07T20:54:44.390Z,85.78
2022-12-07T20:59:47.659Z,85.74
2022-12-07T21:04:50.909Z,85.75
2022-12-07T21:09:54.390Z,85.95
2022-12-07T21:14:57.790Z,85.67
2022-12-07T21:20:01.597Z,85.28
2022-12-07T21:25:05.326Z,85.09
2022-12-07T21:30:09.281Z,85.04
2022-12-07T21:35:12.584Z,85.06
2022-12-07T21:40:17.177Z,85.16
2022-12-07T21:45:20.996Z,84.95
2022-12-07T21:50:24.215Z,84.70
2022-12-07T21:55:27.469Z,84.86
2022-12-07T22:00:33.872Z,84.79
2022-12-07T22:05:37.147Z,85.03
2022-12-07T22:10:41.186Z,84.81
2022-12-07T22:15:44.757Z,85.06
2022-12-07T22:20:49.235Z,84.57
2022-12-07T22:25:55.684Z,84.56
2022-12-07T22:31:06.716Z,84.61
2022-12-07T22:36:11.415Z,84.50
2022-12-07T22:41:25.139Z,84.61
2022-12-07T22:46:28.949Z,84.53
2022-12-07T22:51:34.827Z,84.28
2022-12-07T22:56:38.673Z,84.48
2022-12-07T23:01:42.921Z,84.29
2022-12-07T23:06:46.117Z,84.18
2022-12-07T23:12:11.497Z,84.15
2022-12-07T23:17:14.723Z,84.14
2022-12-07T23:22:17.931Z,83.43
2022-12-07T23:27:21.164Z,83.30
2022-12-07T23:32:24.385Z,83.21
2022-12-07T23:37:27.585Z,82.44
2022-12-07T23:42:30.940Z,82.90
2022-12-07T23:47:34.112Z,83.25
2022-12-07T23:52:37.357Z,82.82
2022-12-07T23:57:40.510Z,83.05
